Tibbie, AL

4:57 PM CDT on July 30, 2014 (GMT -0500)
Markwood (KALCITRO1) Elev 308 ft | 31.08 °N, 88.24 °W | Change Station

Current weather conditions updated 28 minutes ago

Mostly Cloudy
Mostly Cloudy
84.3 °F
Feels Like 84 °F
N
0.0
Wind Variable Wind from SSW
Gusts 5.0 mph

Tomorrow is forecast to be Warmer than today.

Today
High -- | Low -- °F
--% Chance of Precip.
Yesterday
High -- | Low -- °F
Precip. -- in
6:08 AM 7:50 PM
Waxing Crescent, 14% visible
Pressure 30.01 in
Visibility 10.0 miles
Clouds Mostly Cloudy 25000 ft
Heat Index 84 °F
Dew Point 59 °F
Humidity 43%
Rainfall 0.00 in
Snow Depth Not available.
UV 4 out of 12
Pollen 4.30 out of 12
Air Quality Not available.
Flu Activity Not available.
METAR KMOB 302056Z 01007KT 10SM BKN250 30/13 A3001 RMK AO2 SLP160 T03000128 58013

More Conditions Fewer Conditions

Pressure 30.01 in
Visibility 10.0 miles
Clouds Mostly Cloudy 25000 ft
Heat Index 84 °F
Dew Point 59 °F
Humidity 43%
Rainfall 0.00 in
Snow Depth Not available.
UV 4 out of 12
Pollen 4.30 out of 12
Air Quality Not available.
Flu Activity Not available.
METAR KMOB 302056Z 01007KT 10SM BKN250 30/13 A3001 RMK AO2 SLP160 T03000128 58013

More Conditions Fewer Conditions

10-Day Weather Forecast

Almanac

Astronomy

Jul. 30, 2014 Rise Set
Actual Time 6:08 AM CDT 7:50 PM CDT
Civil Twilight 5:41 AM CDT 8:16 PM CDT
Nautical Twilight 5:09 AM CDT 8:48 PM CDT
Astronomical Twilight 4:36 AM CDT 9:22 PM CDT
Moon 9:23 AM CDT 9:50 PM CDT
Length of Visible Light 14h 35m
Length of Day
13h 42m
Tomorrow will be 1m 23s shorter.
Waxing Crescent, 14% of the Moon is Illuminated
Today
Waxing Crescent
Aug 3
First Quarter
Aug 10
Full
Aug 17
Last Quarter
Aug 25
New

Today's Extremes

State Highs State Lows

Community

WunderPhotos

Upload Photos

1,739,219 photos uploaded!

WunderBlogs® & News

By Dr. Jeff Masters
Director of Meteorology, Weather Underground
By Kari Strenfel
Meteorologist, Weather Underground
By Christopher C. Burt
Weather Historian, Weather Underground
July 30, 2014
July 30, 2014
July 30, 2014

Nearby

Snow Depth

Station Depth Elevation
No new snow has been reported.

Earthquake Activity

City Distance Mag. Time & Date
No recent earthquake activity has been reported nearby.
Minimum magnitude displayed is 2.5.

Coastal Water Temperatures

Place Temperature
No Stations Reporting

Nearby Weather Stations

Station Location Temp. Heat Index Dew Point Humidity Wind Precip. Elev Updated Type
Markwood, Citronelle, AL 84.3 °F 84 °F 59 °F 43% SSW  at  0.0 mph 0.00 in / hr 308 ft 4:28 PM CDT Normal
Jackson, AL, Jackson, AL 84.4 °F 85 °F 63 °F 48% NNE  at  0.0 mph 0.00 in / hr 53 ft 4:56 PM CDT Rapid Fire

Show More Stations Show Fewer Stations